createdAt,value
2018-11-14T00:00:32.507Z,9.07
2018-11-14T00:03:02.500Z,8.43
2018-11-14T00:05:31.077Z,9.20
2018-11-14T00:08:00.084Z,8.90
2018-11-14T00:10:28.721Z,7.90
2018-11-14T00:12:57.421Z,8.37
2018-11-14T00:15:26.543Z,9.03
2018-11-14T00:17:55.207Z,8.93
2018-11-14T00:20:24.077Z,9.00
2018-11-14T00:22:52.744Z,8.50
2018-11-14T00:25:21.732Z,8.40
2018-11-14T00:27:50.361Z,8.37
2018-11-14T00:30:23.490Z,9.07
2018-11-14T00:32:52.063Z,9.17
2018-11-14T00:35:20.712Z,8.83
2018-11-14T00:37:49.955Z,8.63
2018-11-14T00:40:19.999Z,8.77
2018-11-14T00:42:49.092Z,8.70
2018-11-14T00:45:19.133Z,9.27
2018-11-14T00:47:48.560Z,9.23
2018-11-14T00:50:17.679Z,10.17
2018-11-14T00:52:46.699Z,9.27
2018-11-14T00:55:16.509Z,9.07
2018-11-14T00:57:46.195Z,8.87
2018-11-14T01:00:17.567Z,9.27
2018-11-14T01:02:46.473Z,9.63
2018-11-14T01:05:16.088Z,9.37
2018-11-14T01:07:45.488Z,9.13
2018-11-14T01:10:15.999Z,8.83
2018-11-14T01:12:45.182Z,8.63
2018-11-14T01:15:15.738Z,8.90
2018-11-14T01:17:44.482Z,8.47
2018-11-14T01:20:16.782Z,8.90
2018-11-14T01:22:45.958Z,8.23
2018-11-14T01:25:15.489Z,8.67
2018-11-14T01:27:44.586Z,8.60
2018-11-14T01:30:30.429Z,8.87
2018-11-14T01:32:59.100Z,8.57
2018-11-14T01:35:27.686Z,8.20
2018-11-14T01:37:56.349Z,8.43
2018-11-14T01:40:25.832Z,9.10
2018-11-14T01:42:55.829Z,8.67
2018-11-14T01:45:24.918Z,8.33
2018-11-14T01:47:53.574Z,8.13
2018-11-14T01:50:22.124Z,8.87
2018-11-14T01:52:50.774Z,8.90
2018-11-14T01:55:20.924Z,8.73
2018-11-14T01:57:49.746Z,8.47
2018-11-14T02:00:20.129Z,8.20
2018-11-14T02:02:48.751Z,8.50
2018-11-14T02:05:17.418Z,7.90
2018-11-14T02:07:46.117Z,7.80
2018-11-14T02:10:16.376Z,9.00
2018-11-14T02:12:46.402Z,8.47
2018-11-14T02:15:17.132Z,8.20
2018-11-14T02:17:46.286Z,8.83
2018-11-14T02:20:15.115Z,8.43
2018-11-14T02:22:44.398Z,8.27
2018-11-14T02:25:13.635Z,8.40
2018-11-14T02:27:42.487Z,8.23
2018-11-14T02:30:19.971Z,8.17
2018-11-14T02:32:48.683Z,8.73
2018-11-14T02:35:17.322Z,8.33
2018-11-14T02:37:46.547Z,8.27
2018-11-14T02:40:17.306Z,8.23
2018-11-14T02:42:45.976Z,9.73
2018-11-14T02:45:15.082Z,8.83
2018-11-14T02:47:43.691Z,9.10
2018-11-14T02:50:13.527Z,8.50
2018-11-14T02:52:42.212Z,8.43
2018-11-14T02:55:12.466Z,9.17
2018-11-14T02:57:41.195Z,9.97
2018-11-14T03:00:11.787Z,9.40
2018-11-14T03:02:40.497Z,9.77
2018-11-14T03:05:09.185Z,10.00
2018-11-14T03:07:39.528Z,10.13
2018-11-14T03:10:11.621Z,9.63
2018-11-14T03:12:40.527Z,9.80
2018-11-14T03:15:11.087Z,8.90
2018-11-14T03:17:39.733Z,8.80
2018-11-14T03:20:10.453Z,9.27
2018-11-14T03:22:39.946Z,9.83
2018-11-14T03:25:09.438Z,9.10
2018-11-14T03:27:39.098Z,9.97
2018-11-14T03:30:12.250Z,9.63
2018-11-14T03:32:41.768Z,9.10
2018-11-14T03:35:11.202Z,9.93
2018-11-14T03:37:40.463Z,9.37
2018-11-14T03:40:11.073Z,9.20
2018-11-14T03:42:40.035Z,9.90
2018-11-14T03:45:10.202Z,9.67
2018-11-14T03:47:39.485Z,10.00
2018-11-14T03:50:09.195Z,10.37
2018-11-14T03:52:38.054Z,9.53
2018-11-14T03:55:07.173Z,10.07
2018-11-14T03:57:35.789Z,9.97
2018-11-14T04:00:07.652Z,10.03
2018-11-14T04:02:36.306Z,9.80
2018-11-14T04:05:05.241Z,9.20
2018-11-14T04:07:34.222Z,9.47
2018-11-14T04:10:03.730Z,10.27
2018-11-14T04:12:32.336Z,10.23
2018-11-14T04:15:00.994Z,9.23
2018-11-14T04:17:29.677Z,9.27
2018-11-14T04:19:58.804Z,9.67
2018-11-14T04:22:27.412Z,9.60
2018-11-14T04:24:56.042Z,10.07
2018-11-14T04:27:24.622Z,9.03
2018-11-14T04:29:55.695Z,9.73
2018-11-14T04:32:24.388Z,10.57
2018-11-14T04:34:52.981Z,9.97
2018-11-14T04:37:21.736Z,10.17
2018-11-14T04:39:50.381Z,10.13
2018-11-14T04:42:19.293Z,10.07
2018-11-14T04:44:47.917Z,9.57
2018-11-14T04:47:16.565Z,10.63
2018-11-14T04:49:45.157Z,10.10
2018-11-14T04:52:13.740Z,9.23
2018-11-14T04:54:42.601Z,9.43
2018-11-14T04:57:11.926Z,9.53
2018-11-14T04:59:40.519Z,9.13
2018-11-14T05:02:09.666Z,9.97
2018-11-14T05:04:38.310Z,9.63
2018-11-14T05:07:06.896Z,8.97
2018-11-14T05:09:35.856Z,10.83
2018-11-14T05:12:04.558Z,9.90
2018-11-14T05:14:33.112Z,9.37
2018-11-14T05:17:02.395Z,9.60
2018-11-14T05:19:30.949Z,9.90
2018-11-14T05:21:59.543Z,9.53
2018-11-14T05:24:28.259Z,9.87
2018-11-14T05:26:56.976Z,10.37
2018-11-14T05:29:25.617Z,9.40
2018-11-14T05:31:54.377Z,9.83
2018-11-14T05:34:23.013Z,9.30
2018-11-14T05:36:51.597Z,8.70
2018-11-14T05:39:20.330Z,9.00
2018-11-14T05:41:48.923Z,9.77
2018-11-14T05:44:17.568Z,9.40
2018-11-14T05:46:46.186Z,10.13
2018-11-14T05:49:14.808Z,9.60
2018-11-14T05:51:43.361Z,9.73
2018-11-14T05:54:11.941Z,8.53
2018-11-14T05:56:40.613Z,9.37
2018-11-14T05:59:09.237Z,9.43
2018-11-14T06:01:37.865Z,9.30
2018-11-14T06:04:06.721Z,9.63
2018-11-14T06:06:35.371Z,9.73
2018-11-14T06:09:05.089Z,9.50
2018-11-14T06:11:33.694Z,9.77
2018-11-14T06:14:02.295Z,9.27
2018-11-14T06:16:31.314Z,9.57
2018-11-14T06:19:00.048Z,9.47
2018-11-14T06:21:28.646Z,9.60
2018-11-14T06:23:57.230Z,9.60
2018-11-14T06:26:27.278Z,9.40
2018-11-14T06:28:55.904Z,9.33
2018-11-14T06:31:24.435Z,9.17
2018-11-14T06:33:53.098Z,9.77
2018-11-14T06:36:21.700Z,9.60
2018-11-14T06:38:50.310Z,9.73
2018-11-14T06:41:19.028Z,9.70
2018-11-14T06:43:47.671Z,10.47
2018-11-14T06:46:16.241Z,10.17
2018-11-14T06:48:44.887Z,10.00
2018-11-14T06:51:13.546Z,11.03
2018-11-14T06:53:42.149Z,10.97
2018-11-14T06:56:11.449Z,10.77
2018-11-14T06:58:40.878Z,10.97
2018-11-14T07:01:10.074Z,10.47
2018-11-14T07:03:38.920Z,11.60
2018-11-14T07:06:08.027Z,10.77
2018-11-14T07:08:36.642Z,10.57
2018-11-14T07:11:06.629Z,10.20
2018-11-14T07:13:35.834Z,11.10
2018-11-14T07:16:07.174Z,11.60
2018-11-14T07:18:37.477Z,11.37
2018-11-14T07:21:07.483Z,11.53
2018-11-14T07:23:37.194Z,11.80
2018-11-14T07:26:08.185Z,11.67
2018-11-14T07:28:38.128Z,11.07
2018-11-14T07:31:09.971Z,11.43
2018-11-14T07:33:38.723Z,12.33
2018-11-14T07:36:07.380Z,11.77
2018-11-14T07:38:52.341Z,12.73
2018-11-14T07:41:29.831Z,11.93
2018-11-14T07:43:59.033Z,12.73
2018-11-14T07:46:30.482Z,13.10
2018-11-14T07:48:59.472Z,10.93
2018-11-14T07:51:29.329Z,12.27
2018-11-14T07:53:58.298Z,11.67
2018-11-14T07:56:27.680Z,11.93
2018-11-14T07:58:56.609Z,11.80
2018-11-14T08:01:25.386Z,11.53
2018-11-14T08:03:55.820Z,11.97
2018-11-14T08:06:24.555Z,12.77
2018-11-14T08:08:53.374Z,11.90
2018-11-14T08:11:24.179Z,12.80
2018-11-14T08:13:52.761Z,12.17
2018-11-14T08:16:21.543Z,12.67
2018-11-14T08:18:50.249Z,12.57
2018-11-14T08:21:18.887Z,12.10
2018-11-14T08:23:48.600Z,12.30
2018-11-14T08:26:18.525Z,11.97
2018-11-14T08:28:47.269Z,11.83
2018-11-14T08:31:16.562Z,11.80
2018-11-14T08:33:45.278Z,12.70
2018-11-14T08:36:14.468Z,12.97
2018-11-14T08:38:44.840Z,12.83
2018-11-14T08:41:13.599Z,12.60
2018-11-14T08:43:42.382Z,12.87
2018-11-14T08:46:11.315Z,12.27
2018-11-14T08:48:41.198Z,12.70
2018-11-14T08:51:10.897Z,12.53
2018-11-14T08:53:39.501Z,13.50
2018-11-14T08:56:08.055Z,12.40
2018-11-14T08:58:36.879Z,12.63
2018-11-14T09:01:05.843Z,13.17
2018-11-14T09:03:34.437Z,13.30
2018-11-14T09:06:03.241Z,12.77
2018-11-14T09:08:31.881Z,12.70
2018-11-14T09:11:00.635Z,12.27
2018-11-14T09:13:29.170Z,13.10
2018-11-14T09:15:58.068Z,13.30
2018-11-14T09:18:26.814Z,13.47
2018-11-14T09:20:55.971Z,12.40
2018-11-14T09:23:26.494Z,13.57
2018-11-14T09:25:55.600Z,12.83
2018-11-14T09:28:24.333Z,13.00
2018-11-14T09:30:53.190Z,13.17
2018-11-14T09:33:21.895Z,13.20
2018-11-14T09:35:50.890Z,12.77
2018-11-14T09:38:19.649Z,13.00
2018-11-14T09:40:48.406Z,12.07
2018-11-14T09:43:18.527Z,12.13
2018-11-14T09:45:47.515Z,12.40
2018-11-14T09:48:17.399Z,11.67
2018-11-14T09:50:46.447Z,10.90
2018-11-14T09:53:19.140Z,19.23
2018-11-14T09:55:48.321Z,12.10
2018-11-14T09:58:21.031Z,10.60
2018-11-14T10:00:51.723Z,10.20
2018-11-14T10:03:22.368Z,9.20
2018-11-14T10:05:51.781Z,9.53
2018-11-14T10:08:22.079Z,9.13
2018-11-14T10:10:51.835Z,9.50
2018-11-14T10:13:21.445Z,8.67
2018-11-14T10:15:51.591Z,8.50
2018-11-14T10:18:21.847Z,8.33
2018-11-14T10:20:53.280Z,8.43
2018-11-14T10:23:24.134Z,8.27
2018-11-14T10:25:55.800Z,7.90
2018-11-14T10:28:28.860Z,7.77
2018-11-14T10:30:59.320Z,8.00
2018-11-14T10:33:30.459Z,8.33
2018-11-14T10:36:06.944Z,8.10
2018-11-14T10:38:38.391Z,7.93
2018-11-14T10:41:09.329Z,8.17
2018-11-14T10:46:18.983Z,8.40
2018-11-14T10:48:54.603Z,7.87
2018-11-14T10:51:23.355Z,7.57
2018-11-14T10:53:55.161Z,7.23
2018-11-14T10:56:25.706Z,7.53
2018-11-14T10:59:00.158Z,7.90
2018-11-14T11:01:35.516Z,7.43
2018-11-14T11:04:10.096Z,8.03
2018-11-14T11:06:45.604Z,8.33
2018-11-14T11:09:22.381Z,8.07
2018-11-14T11:11:58.271Z,8.50
2018-11-14T11:14:34.736Z,8.03
2018-11-14T11:17:11.690Z,7.97
2018-11-14T11:19:42.698Z,7.00
2018-11-14T11:22:12.094Z,8.40
2018-11-14T11:24:44.218Z,7.70
2018-11-14T11:27:17.577Z,7.80
2018-11-14T11:29:49.496Z,7.50
2018-11-14T11:32:19.331Z,7.27
2018-11-14T11:34:52.487Z,7.37
2018-11-14T11:37:22.758Z,7.53
2018-11-14T11:39:53.869Z,7.03
2018-11-14T11:42:24.124Z,7.87
2018-11-14T11:44:55.101Z,7.80
2018-11-14T11:47:27.396Z,7.77
2018-11-14T11:50:02.156Z,7.00
2018-11-14T11:52:31.900Z,7.93
2018-11-14T11:55:09.834Z,7.93
2018-11-14T11:57:40.329Z,6.40
2018-11-14T12:00:12.960Z,7.67
2018-11-14T12:02:42.690Z,6.80
2018-11-14T12:05:15.727Z,7.00
2018-11-14T12:07:45.075Z,7.13
2018-11-14T12:10:14.733Z,6.50
2018-11-14T12:12:44.436Z,7.10
2018-11-14T12:15:13.857Z,6.83
2018-11-14T12:17:44.252Z,6.10
2018-11-14T12:20:14.323Z,6.20
2018-11-14T12:22:44.608Z,6.53
2018-11-14T12:25:14.961Z,6.30
2018-11-14T12:27:43.951Z,6.90
2018-11-14T12:30:16.932Z,6.67
2018-11-14T12:32:46.696Z,7.00
2018-11-14T12:35:16.513Z,6.87
2018-11-14T12:37:45.091Z,6.47
2018-11-14T12:40:14.856Z,6.00
2018-11-14T12:42:43.439Z,5.90
2018-11-14T12:45:14.508Z,6.30
2018-11-14T12:47:43.188Z,6.97
2018-11-14T12:50:12.914Z,6.00
2018-11-14T12:52:41.807Z,6.17
2018-11-14T12:55:12.323Z,7.27
2018-11-14T12:57:41.697Z,7.60
2018-11-14T13:00:12.499Z,7.17
2018-11-14T13:02:41.143Z,7.03
2018-11-14T13:05:10.809Z,6.60
2018-11-14T13:07:39.672Z,7.13
2018-11-14T13:10:09.734Z,6.60
2018-11-14T13:12:38.581Z,7.30
2018-11-14T13:15:08.317Z,7.17
2018-11-14T13:17:36.909Z,6.60
2018-11-14T13:20:08.606Z,6.87
2018-11-14T13:22:37.150Z,6.47
2018-11-14T13:25:07.123Z,6.83
2018-11-14T13:27:35.636Z,6.37
2018-11-14T13:30:04.800Z,5.97
2018-11-14T13:32:33.393Z,6.43
2018-11-14T13:35:02.076Z,6.30
2018-11-14T13:37:30.679Z,6.93
2018-11-14T13:40:03.348Z,6.50
2018-11-14T13:42:32.945Z,6.13
2018-11-14T13:45:01.591Z,6.77
2018-11-14T13:47:30.241Z,6.40
2018-11-14T13:49:58.935Z,6.53
2018-11-14T13:52:27.454Z,7.17
2018-11-14T13:54:56.128Z,6.67
2018-11-14T13:57:24.758Z,6.67
2018-11-14T13:59:53.844Z,6.13
2018-11-14T14:02:22.482Z,6.37
2018-11-14T14:04:51.090Z,6.13
2018-11-14T14:07:19.671Z,6.10
2018-11-14T14:09:48.348Z,6.20
2018-11-14T14:12:16.956Z,6.23
2018-11-14T14:14:45.591Z,6.40
2018-11-14T14:17:14.257Z,5.80
2018-11-14T14:19:42.858Z,6.23
2018-11-14T14:22:11.539Z,6.17
2018-11-14T14:24:40.153Z,6.20
2018-11-14T14:27:08.788Z,6.10
2018-11-14T14:29:37.467Z,6.10
2018-11-14T14:32:06.257Z,5.73
2018-11-14T14:34:34.911Z,6.43
2018-11-14T14:37:03.563Z,6.27
2018-11-14T14:39:32.183Z,5.80
2018-11-14T14:42:00.906Z,5.47
2018-11-14T14:44:29.546Z,5.90
2018-11-14T14:46:58.175Z,6.10
2018-11-14T14:49:26.840Z,5.90
2018-11-14T14:51:55.443Z,5.67
2018-11-14T14:54:24.663Z,5.70
2018-11-14T14:56:53.269Z,5.80
2018-11-14T14:59:21.921Z,5.70
2018-11-14T15:01:50.578Z,5.47
2018-11-14T15:04:19.243Z,5.93
2018-11-14T15:06:47.965Z,5.60
2018-11-14T15:09:16.656Z,5.73
2018-11-14T15:11:45.244Z,6.17
2018-11-14T15:14:13.854Z,5.80
2018-11-14T15:16:42.621Z,5.90
2018-11-14T15:19:11.243Z,6.90
2018-11-14T15:21:39.845Z,6.97
2018-11-14T15:24:08.525Z,6.93
2018-11-14T15:26:37.181Z,8.27
2018-11-14T15:29:06.381Z,6.90
2018-11-14T15:31:35.006Z,6.67
2018-11-14T15:34:04.414Z,6.87
2018-11-14T15:36:33.044Z,6.97
2018-11-14T15:39:01.660Z,7.00
2018-11-14T15:41:30.331Z,6.63
2018-11-14T15:43:59.021Z,7.40
2018-11-14T15:46:27.658Z,7.37
2018-11-14T15:48:56.243Z,7.87
2018-11-14T15:51:25.642Z,9.07
2018-11-14T15:53:54.293Z,9.30
2018-11-14T15:56:23.057Z,8.37
2018-11-14T15:58:51.685Z,8.63
2018-11-14T16:01:20.323Z,7.63
2018-11-14T16:03:48.991Z,6.97
2018-11-14T16:06:17.744Z,6.93
2018-11-14T16:08:46.529Z,8.10
2018-11-14T16:11:15.231Z,7.47
2018-11-14T16:13:48.014Z,7.50
2018-11-14T16:16:16.689Z,7.57
2018-11-14T16:18:45.290Z,8.37
2018-11-14T16:21:13.850Z,8.37
2018-11-14T16:23:42.454Z,8.17
2018-11-14T16:26:11.048Z,8.40
2018-11-14T16:28:39.734Z,7.90
2018-11-14T16:31:08.348Z,9.20
2018-11-14T16:33:36.914Z,9.07
2018-11-14T16:36:05.792Z,10.40
2018-11-14T16:38:34.395Z,10.37
2018-11-14T16:41:03.095Z,11.97
2018-11-14T16:43:31.663Z,12.40
2018-11-14T16:46:00.235Z,15.93
2018-11-14T16:48:28.919Z,14.43
2018-11-14T16:50:57.831Z,9.87
2018-11-14T16:53:26.456Z,12.33
2018-11-14T16:55:55.208Z,10.63
2018-11-14T16:58:23.865Z,10.87
2018-11-14T17:00:52.510Z,11.77
2018-11-14T17:03:21.238Z,11.60
2018-11-14T17:05:49.914Z,11.70
2018-11-14T17:08:18.550Z,12.80
2018-11-14T17:10:47.220Z,12.23
2018-11-14T17:13:15.868Z,12.13
2018-11-14T17:15:44.516Z,12.13
2018-11-14T17:18:13.156Z,12.93
2018-11-14T17:20:42.743Z,13.03
2018-11-14T17:23:11.450Z,13.03
2018-11-14T17:25:40.270Z,12.50
2018-11-14T17:28:08.897Z,13.17
2018-11-14T17:30:37.592Z,12.97
2018-11-14T17:33:06.739Z,12.70
2018-11-14T17:35:35.463Z,14.47
2018-11-14T17:38:04.193Z,13.33
2018-11-14T17:40:32.865Z,14.10
2018-11-14T17:43:01.669Z,13.73
2018-11-14T17:45:31.319Z,13.30
2018-11-14T17:48:00.330Z,13.30
2018-11-14T17:50:32.000Z,13.80
2018-11-14T17:53:01.410Z,13.30
2018-11-14T17:55:30.425Z,12.97
2018-11-14T17:57:59.612Z,14.07
2018-11-14T18:00:29.606Z,13.23
2018-11-14T18:02:58.427Z,12.90
2018-11-14T18:05:29.433Z,13.57
2018-11-14T18:07:58.154Z,14.63
2018-11-14T18:10:28.083Z,14.03
2018-11-14T18:12:57.933Z,14.07
2018-11-14T18:15:26.905Z,15.40
2018-11-14T18:17:56.259Z,14.70
2018-11-14T18:20:26.571Z,15.50
2018-11-14T18:22:55.350Z,15.63
2018-11-14T18:25:24.019Z,15.97
2018-11-14T18:27:52.660Z,16.00
2018-11-14T18:30:28.771Z,15.87
2018-11-14T18:32:58.356Z,16.67
2018-11-14T18:35:27.660Z,15.67
2018-11-14T18:37:57.096Z,17.23
2018-11-14T18:40:28.052Z,15.37
2018-11-14T18:42:56.935Z,16.77
2018-11-14T18:45:27.459Z,17.40
2018-11-14T18:47:56.762Z,15.93
2018-11-14T18:50:25.823Z,15.53
2018-11-14T18:52:55.086Z,14.80
2018-11-14T18:55:25.213Z,15.90
2018-11-14T18:57:54.036Z,16.83
2018-11-14T19:00:24.892Z,16.70
2018-11-14T19:02:53.540Z,16.27
2018-11-14T19:05:22.198Z,16.13
2018-11-14T19:07:50.942Z,15.37
2018-11-14T19:10:21.184Z,16.73
2018-11-14T19:12:50.619Z,17.10
2018-11-14T19:15:22.436Z,16.03
2018-11-14T19:17:51.651Z,15.97
2018-11-14T19:20:21.926Z,15.93
2018-11-14T19:22:50.883Z,14.83
2018-11-14T19:25:22.423Z,15.53
2018-11-14T19:27:51.362Z,14.00
2018-11-14T19:30:22.540Z,13.53
2018-11-14T19:32:52.007Z,13.47
2018-11-14T19:35:20.680Z,12.60
2018-11-14T19:37:50.521Z,12.23
2018-11-14T19:40:20.629Z,12.43
2018-11-14T19:42:50.661Z,12.73
2018-11-14T19:45:21.502Z,12.17
2018-11-14T19:47:50.238Z,12.63
2018-11-14T19:50:22.267Z,12.13
2018-11-14T19:52:51.398Z,11.70
2018-11-14T19:55:21.233Z,12.00
2018-11-14T19:57:51.045Z,11.80
2018-11-14T20:00:25.910Z,11.87
2018-11-14T20:02:59.203Z,11.87
2018-11-14T20:05:27.982Z,11.47
2018-11-14T20:07:56.732Z,11.53
2018-11-14T20:10:27.047Z,11.13
2018-11-14T20:12:55.659Z,12.47
2018-11-14T20:15:27.603Z,12.30
2018-11-14T20:17:56.197Z,11.80
2018-11-14T20:20:26.226Z,12.40
2018-11-14T20:22:54.871Z,11.90
2018-11-14T20:25:23.531Z,10.97
2018-11-14T20:27:52.093Z,11.03
2018-11-14T20:30:37.680Z,10.80
2018-11-14T20:33:12.287Z,10.40
2018-11-14T20:35:42.006Z,9.47
2018-11-14T20:38:10.775Z,10.47
2018-11-14T20:40:40.922Z,10.27
2018-11-14T20:43:09.579Z,10.17
2018-11-14T20:45:38.232Z,10.47
2018-11-14T20:48:08.180Z,10.37
2018-11-14T20:50:36.917Z,9.80
2018-11-14T20:53:07.411Z,9.93
2018-11-14T20:55:37.227Z,10.63
2018-11-14T20:58:06.053Z,9.93
2018-11-14T21:00:36.196Z,10.77
2018-11-14T21:03:05.110Z,10.43
2018-11-14T21:05:33.943Z,10.63
2018-11-14T21:08:02.680Z,10.73
2018-11-14T21:10:32.688Z,10.33
2018-11-14T21:13:02.181Z,10.90
2018-11-14T21:15:32.434Z,10.97
2018-11-14T21:18:01.860Z,11.00
2018-11-14T21:20:30.707Z,11.07
2018-11-14T21:23:05.475Z,9.90
2018-11-14T21:25:34.220Z,9.73
2018-11-14T21:28:03.025Z,10.27
2018-11-14T21:30:32.204Z,9.73
2018-11-14T21:33:00.980Z,9.90
2018-11-14T21:35:34.804Z,10.50
2018-11-14T21:38:05.134Z,10.00
2018-11-14T21:40:33.974Z,10.43
2018-11-14T21:43:02.611Z,10.40
2018-11-14T21:45:31.334Z,10.10
2018-11-14T21:48:05.332Z,10.00
2018-11-14T21:50:34.463Z,10.20
2018-11-14T21:53:03.305Z,10.33
2018-11-14T21:55:32.750Z,10.17
2018-11-14T21:58:01.471Z,10.80
2018-11-14T22:00:35.348Z,10.57
2018-11-14T22:03:04.751Z,10.80
2018-11-14T22:05:34.215Z,9.70
2018-11-14T22:08:02.975Z,10.03
2018-11-14T22:10:31.875Z,10.37
2018-11-14T22:13:00.601Z,10.40
2018-11-14T22:15:30.252Z,10.43
2018-11-14T22:17:59.115Z,10.80
2018-11-14T22:20:28.602Z,10.40
2018-11-14T22:22:57.426Z,10.63
2018-11-14T22:25:27.529Z,10.60
2018-11-14T22:27:56.735Z,11.00
2018-11-14T22:30:27.823Z,11.47
2018-11-14T22:32:56.803Z,10.80
2018-11-14T22:35:26.949Z,11.00
2018-11-14T22:37:56.849Z,11.17
2018-11-14T22:40:28.927Z,11.70
2018-11-14T22:42:57.765Z,11.47
2018-11-14T22:45:31.746Z,11.20
2018-11-14T22:48:00.593Z,11.70
2018-11-14T22:50:29.327Z,11.23
2018-11-14T22:52:58.169Z,11.53
2018-11-14T22:55:27.214Z,11.73
2018-11-14T22:57:56.118Z,12.10
2018-11-14T23:00:39.789Z,10.97
2018-11-14T23:03:08.518Z,10.63
2018-11-14T23:05:37.261Z,11.40
2018-11-14T23:08:06.197Z,11.17
2018-11-14T23:10:35.234Z,10.60
2018-11-14T23:13:04.110Z,10.83
2018-11-14T23:15:32.861Z,11.00
2018-11-14T23:18:01.577Z,11.53
2018-11-14T23:20:30.230Z,11.37
2018-11-14T23:22:59.242Z,10.73
2018-11-14T23:25:28.008Z,10.77
2018-11-14T23:27:57.243Z,10.63
2018-11-14T23:30:27.071Z,11.23
2018-11-14T23:32:56.374Z,11.23
2018-11-14T23:35:30.143Z,11.63
2018-11-14T23:38:00.363Z,11.50
2018-11-14T23:40:29.185Z,11.37
2018-11-14T23:42:57.901Z,12.10
2018-11-14T23:45:27.303Z,12.00
2018-11-14T23:47:55.885Z,12.50
2018-11-14T23:50:26.540Z,12.33
2018-11-14T23:52:56.150Z,11.63
2018-11-14T23:55:25.508Z,11.47
2018-11-14T23:57:54.696Z,12.17
